sensor_id;sensor_type;location;lat;lon;timestamp;P1;durP1;ratioP1;P2;durP2;ratioP2
68449;SDS011;55434;39.570;2.652;2022-08-19T00:00:07;9.30;;;1.92;;
68449;SDS011;55434;39.570;2.652;2022-08-19T00:02:34;7.93;;;2.50;;
68449;SDS011;55434;39.570;2.652;2022-08-19T00:05:00;6.45;;;1.75;;
68449;SDS011;55434;39.570;2.652;2022-08-19T00:07:26;7.97;;;2.00;;
68449;SDS011;55434;39.570;2.652;2022-08-19T00:09:52;6.70;;;1.93;;
68449;SDS011;55434;39.570;2.652;2022-08-19T00:12:19;5.75;;;1.65;;
68449;SDS011;55434;39.570;2.652;2022-08-19T00:14:44;8.15;;;2.40;;
68449;SDS011;55434;39.570;2.652;2022-08-19T00:17:10;7.07;;;1.80;;
68449;SDS011;55434;39.570;2.652;2022-08-19T00:19:36;6.33;;;1.40;;
68449;SDS011;55434;39.570;2.652;2022-08-19T00:22:02;6.82;;;1.40;;
68449;SDS011;55434;39.570;2.652;2022-08-19T00:24:28;6.90;;;1.48;;
68449;SDS011;55434;39.570;2.652;2022-08-19T00:26:54;6.90;;;1.47;;
68449;SDS011;55434;39.570;2.652;2022-08-19T00:29:22;6.68;;;1.52;;
68449;SDS011;55434;39.570;2.652;2022-08-19T00:31:49;7.25;;;1.58;;
68449;SDS011;55434;39.570;2.652;2022-08-19T00:34:18;6.68;;;1.70;;
68449;SDS011;55434;39.570;2.652;2022-08-19T00:36:44;8.57;;;1.30;;
68449;SDS011;55434;39.570;2.652;2022-08-19T00:39:11;5.20;;;1.40;;
68449;SDS011;55434;39.570;2.652;2022-08-19T00:41:37;6.93;;;1.40;;
68449;SDS011;55434;39.570;2.652;2022-08-19T00:44:05;10.13;;;1.88;;
68449;SDS011;55434;39.570;2.652;2022-08-19T00:46:40;6.88;;;1.48;;
68449;SDS011;55434;39.570;2.652;2022-08-19T00:51:45;7.50;;;1.40;;
68449;SDS011;55434;39.570;2.652;2022-08-19T00:54:14;6.15;;;1.50;;
68449;SDS011;55434;39.570;2.652;2022-08-19T00:56:40;7.45;;;1.42;;
68449;SDS011;55434;39.570;2.652;2022-08-19T00:59:06;5.17;;;1.43;;
68449;SDS011;55434;39.570;2.652;2022-08-19T01:01:36;6.97;;;1.35;;
68449;SDS011;55434;39.570;2.652;2022-08-19T01:04:03;6.35;;;1.83;;
68449;SDS011;55434;39.570;2.652;2022-08-19T01:06:29;7.03;;;1.73;;
68449;SDS011;55434;39.570;2.652;2022-08-19T01:08:58;6.53;;;1.50;;
68449;SDS011;55434;39.570;2.652;2022-08-19T01:11:24;14.20;;;1.77;;
68449;SDS011;55434;39.570;2.652;2022-08-19T01:13:51;7.30;;;1.90;;
68449;SDS011;55434;39.570;2.652;2022-08-19T01:16:18;5.75;;;1.50;;
68449;SDS011;55434;39.570;2.652;2022-08-19T01:18:46;7.83;;;1.83;;
68449;SDS011;55434;39.570;2.652;2022-08-19T01:21:31;11.30;;;2.25;;
68449;SDS011;55434;39.570;2.652;2022-08-19T01:24:03;8.93;;;1.50;;
68449;SDS011;55434;39.570;2.652;2022-08-19T01:26:29;7.07;;;1.35;;
68449;SDS011;55434;39.570;2.652;2022-08-19T01:28:55;7.35;;;1.30;;
68449;SDS011;55434;39.570;2.652;2022-08-19T01:31:24;7.83;;;1.60;;
68449;SDS011;55434;39.570;2.652;2022-08-19T01:33:52;5.85;;;1.30;;
68449;SDS011;55434;39.570;2.652;2022-08-19T01:38:59;5.85;;;1.50;;
68449;SDS011;55434;39.570;2.652;2022-08-19T01:41:27;7.70;;;1.20;;
68449;SDS011;55434;39.570;2.652;2022-08-19T01:43:53;7.47;;;1.37;;
68449;SDS011;55434;39.570;2.652;2022-08-19T01:46:19;9.77;;;1.55;;
68449;SDS011;55434;39.570;2.652;2022-08-19T01:48:45;5.07;;;0.90;;
68449;SDS011;55434;39.570;2.652;2022-08-19T01:51:12;4.53;;;0.90;;
68449;SDS011;55434;39.570;2.652;2022-08-19T01:53:39;7.85;;;1.10;;
68449;SDS011;55434;39.570;2.652;2022-08-19T01:56:05;5.88;;;1.05;;
68449;SDS011;55434;39.570;2.652;2022-08-19T01:58:33;7.35;;;1.13;;
68449;SDS011;55434;39.570;2.652;2022-08-19T02:01:04;7.60;;;1.30;;
68449;SDS011;55434;39.570;2.652;2022-08-19T02:03:31;4.57;;;1.02;;
68449;SDS011;55434;39.570;2.652;2022-08-19T02:06:00;6.05;;;0.95;;
68449;SDS011;55434;39.570;2.652;2022-08-19T02:08:28;4.97;;;0.95;;
68449;SDS011;55434;39.570;2.652;2022-08-19T02:10:59;6.27;;;0.80;;
68449;SDS011;55434;39.570;2.652;2022-08-19T02:13:41;5.78;;;1.10;;
68449;SDS011;55434;39.570;2.652;2022-08-19T02:16:07;4.50;;;0.93;;
68449;SDS011;55434;39.570;2.652;2022-08-19T02:18:32;5.35;;;0.95;;
68449;SDS011;55434;39.570;2.652;2022-08-19T02:20:58;4.33;;;0.87;;
68449;SDS011;55434;39.570;2.652;2022-08-19T02:23:24;7.05;;;1.10;;
68449;SDS011;55434;39.570;2.652;2022-08-19T02:25:51;5.47;;;0.90;;
68449;SDS011;55434;39.570;2.652;2022-08-19T02:28:16;5.35;;;1.23;;
68449;SDS011;55434;39.570;2.652;2022-08-19T02:30:42;6.83;;;1.20;;
68449;SDS011;55434;39.570;2.652;2022-08-19T02:33:08;6.83;;;1.00;;
68449;SDS011;55434;39.570;2.652;2022-08-19T02:35:33;5.10;;;0.98;;
68449;SDS011;55434;39.570;2.652;2022-08-19T02:37:59;8.17;;;1.10;;
68449;SDS011;55434;39.570;2.652;2022-08-19T02:40:50;6.88;;;1.05;;
68449;SDS011;55434;39.570;2.652;2022-08-19T02:43:24;7.07;;;1.20;;
68449;SDS011;55434;39.570;2.652;2022-08-19T02:45:51;6.78;;;1.40;;
68449;SDS011;55434;39.570;2.652;2022-08-19T02:48:18;5.90;;;1.10;;
68449;SDS011;55434;39.570;2.652;2022-08-19T02:50:45;6.10;;;1.50;;
68449;SDS011;55434;39.570;2.652;2022-08-19T02:53:12;4.60;;;1.20;;
68449;SDS011;55434;39.570;2.652;2022-08-19T02:55:46;6.15;;;1.40;;
68449;SDS011;55434;39.570;2.652;2022-08-19T02:58:13;7.82;;;1.27;;
68449;SDS011;55434;39.570;2.652;2022-08-19T03:00:46;8.97;;;2.00;;
68449;SDS011;55434;39.570;2.652;2022-08-19T03:03:14;8.52;;;1.58;;
68449;SDS011;55434;39.570;2.652;2022-08-19T03:05:40;7.53;;;1.55;;
68449;SDS011;55434;39.570;2.652;2022-08-19T03:08:07;9.05;;;1.55;;
68449;SDS011;55434;39.570;2.652;2022-08-19T03:10:39;5.30;;;1.38;;
68449;SDS011;55434;39.570;2.652;2022-08-19T03:13:08;7.97;;;1.40;;
68449;SDS011;55434;39.570;2.652;2022-08-19T03:15:34;6.93;;;1.10;;
68449;SDS011;55434;39.570;2.652;2022-08-19T03:18:03;7.47;;;1.42;;
68449;SDS011;55434;39.570;2.652;2022-08-19T03:20:29;8.97;;;1.37;;
68449;SDS011;55434;39.570;2.652;2022-08-19T03:22:54;5.93;;;1.10;;
68449;SDS011;55434;39.570;2.652;2022-08-19T03:25:19;5.70;;;1.50;;
68449;SDS011;55434;39.570;2.652;2022-08-19T03:27:45;5.23;;;1.20;;
68449;SDS011;55434;39.570;2.652;2022-08-19T03:30:14;6.85;;;1.20;;
68449;SDS011;55434;39.570;2.652;2022-08-19T03:32:39;6.37;;;1.20;;
68449;SDS011;55434;39.570;2.652;2022-08-19T03:35:05;9.23;;;1.58;;
68449;SDS011;55434;39.570;2.652;2022-08-19T03:37:31;8.02;;;1.15;;
68449;SDS011;55434;39.570;2.652;2022-08-19T03:39:57;7.37;;;1.33;;
68449;SDS011;55434;39.570;2.652;2022-08-19T03:42:22;6.00;;;1.48;;
68449;SDS011;55434;39.570;2.652;2022-08-19T03:44:48;6.03;;;1.50;;
68449;SDS011;55434;39.570;2.652;2022-08-19T03:47:14;7.00;;;1.70;;
68449;SDS011;55434;39.570;2.652;2022-08-19T03:49:41;5.40;;;1.80;;
68449;SDS011;55434;39.570;2.652;2022-08-19T03:52:07;7.88;;;1.83;;
68449;SDS011;55434;39.570;2.652;2022-08-19T03:54:33;11.20;;;1.90;;
68449;SDS011;55434;39.570;2.652;2022-08-19T03:56:59;8.80;;;1.98;;
68449;SDS011;55434;39.570;2.652;2022-08-19T03:59:29;6.73;;;1.80;;
68449;SDS011;55434;39.570;2.652;2022-08-19T04:01:57;7.20;;;1.65;;
68449;SDS011;55434;39.570;2.652;2022-08-19T04:04:26;6.85;;;1.67;;
68449;SDS011;55434;39.570;2.652;2022-08-19T04:06:53;10.75;;;2.42;;
68449;SDS011;55434;39.570;2.652;2022-08-19T04:09:19;8.40;;;1.97;;
68449;SDS011;55434;39.570;2.652;2022-08-19T04:11:46;8.35;;;1.92;;
68449;SDS011;55434;39.570;2.652;2022-08-19T04:14:19;7.00;;;1.70;;
68449;SDS011;55434;39.570;2.652;2022-08-19T04:16:47;7.53;;;1.63;;
68449;SDS011;55434;39.570;2.652;2022-08-19T04:19:14;7.95;;;1.73;;
68449;SDS011;55434;39.570;2.652;2022-08-19T04:21:43;6.07;;;1.38;;
68449;SDS011;55434;39.570;2.652;2022-08-19T04:24:10;4.55;;;1.15;;
68449;SDS011;55434;39.570;2.652;2022-08-19T04:26:37;9.85;;;1.50;;
68449;SDS011;55434;39.570;2.652;2022-08-19T04:29:09;7.73;;;1.37;;
68449;SDS011;55434;39.570;2.652;2022-08-19T04:31:37;6.90;;;1.40;;
68449;SDS011;55434;39.570;2.652;2022-08-19T04:34:04;8.02;;;1.95;;
68449;SDS011;55434;39.570;2.652;2022-08-19T04:36:32;12.75;;;2.10;;
68449;SDS011;55434;39.570;2.652;2022-08-19T04:39:02;7.67;;;1.77;;
68449;SDS011;55434;39.570;2.652;2022-08-19T04:41:29;8.13;;;1.70;;
68449;SDS011;55434;39.570;2.652;2022-08-19T04:44:13;9.50;;;1.55;;
68449;SDS011;55434;39.570;2.652;2022-08-19T04:46:43;8.45;;;1.45;;
68449;SDS011;55434;39.570;2.652;2022-08-19T04:49:09;5.95;;;1.67;;
68449;SDS011;55434;39.570;2.652;2022-08-19T04:51:34;6.80;;;1.80;;
68449;SDS011;55434;39.570;2.652;2022-08-19T04:54:02;6.47;;;1.73;;
68449;SDS011;55434;39.570;2.652;2022-08-19T04:56:28;8.15;;;1.63;;
68449;SDS011;55434;39.570;2.652;2022-08-19T04:58:54;6.10;;;1.50;;
68449;SDS011;55434;39.570;2.652;2022-08-19T05:01:22;17.23;;;4.05;;
68449;SDS011;55434;39.570;2.652;2022-08-19T05:03:50;8.90;;;2.33;;
68449;SDS011;55434;39.570;2.652;2022-08-19T05:06:17;19.30;;;3.42;;
68449;SDS011;55434;39.570;2.652;2022-08-19T05:08:45;10.57;;;2.70;;
68449;SDS011;55434;39.570;2.652;2022-08-19T05:11:22;19.70;;;4.57;;
68449;SDS011;55434;39.570;2.652;2022-08-19T05:13:51;10.27;;;2.60;;
68449;SDS011;55434;39.570;2.652;2022-08-19T05:16:18;32.95;;;7.03;;
68449;SDS011;55434;39.570;2.652;2022-08-19T05:18:45;16.00;;;3.17;;
68449;SDS011;55434;39.570;2.652;2022-08-19T05:21:29;21.27;;;4.83;;
68449;SDS011;55434;39.570;2.652;2022-08-19T05:24:14;13.20;;;3.38;;
68449;SDS011;55434;39.570;2.652;2022-08-19T05:26:44;18.83;;;4.22;;
68449;SDS011;55434;39.570;2.652;2022-08-19T05:29:12;15.82;;;3.63;;
68449;SDS011;55434;39.570;2.652;2022-08-19T05:31:39;22.05;;;4.65;;
68449;SDS011;55434;39.570;2.652;2022-08-19T05:34:05;12.73;;;4.20;;
68449;SDS011;55434;39.570;2.652;2022-08-19T05:36:36;15.93;;;4.18;;
68449;SDS011;55434;39.570;2.652;2022-08-19T05:39:07;17.30;;;5.32;;
68449;SDS011;55434;39.570;2.652;2022-08-19T05:41:35;18.07;;;6.10;;
68449;SDS011;55434;39.570;2.652;2022-08-19T05:44:01;27.33;;;6.20;;
68449;SDS011;55434;39.570;2.652;2022-08-19T05:46:30;71.88;;;8.50;;
68449;SDS011;55434;39.570;2.652;2022-08-19T05:48:56;17.60;;;5.40;;
68449;SDS011;55434;39.570;2.652;2022-08-19T05:51:22;17.17;;;5.20;;
68449;SDS011;55434;39.570;2.652;2022-08-19T05:53:48;21.98;;;6.32;;
68449;SDS011;55434;39.570;2.652;2022-08-19T05:56:15;17.92;;;5.13;;
68449;SDS011;55434;39.570;2.652;2022-08-19T05:58:41;19.38;;;5.78;;
68449;SDS011;55434;39.570;2.652;2022-08-19T06:01:14;23.47;;;5.53;;
68449;SDS011;55434;39.570;2.652;2022-08-19T06:03:41;15.30;;;4.20;;
68449;SDS011;55434;39.570;2.652;2022-08-19T06:06:07;11.80;;;3.47;;
68449;SDS011;55434;39.570;2.652;2022-08-19T06:08:35;16.87;;;3.90;;
68449;SDS011;55434;39.570;2.652;2022-08-19T06:14:09;23.60;;;5.35;;
68449;SDS011;55434;39.570;2.652;2022-08-19T06:16:37;16.85;;;3.83;;
68449;SDS011;55434;39.570;2.652;2022-08-19T06:19:06;12.25;;;3.95;;
68449;SDS011;55434;39.570;2.652;2022-08-19T06:21:35;14.30;;;3.47;;
68449;SDS011;55434;39.570;2.652;2022-08-19T06:24:02;20.75;;;3.33;;
68449;SDS011;55434;39.570;2.652;2022-08-19T06:26:33;12.80;;;2.85;;
68449;SDS011;55434;39.570;2.652;2022-08-19T06:29:00;14.27;;;3.00;;
68449;SDS011;55434;39.570;2.652;2022-08-19T06:31:27;15.13;;;2.55;;
68449;SDS011;55434;39.570;2.652;2022-08-19T06:33:56;11.43;;;2.60;;
68449;SDS011;55434;39.570;2.652;2022-08-19T06:36:23;12.18;;;2.63;;
68449;SDS011;55434;39.570;2.652;2022-08-19T06:38:55;15.57;;;2.38;;
68449;SDS011;55434;39.570;2.652;2022-08-19T06:41:22;11.77;;;2.70;;
68449;SDS011;55434;39.570;2.652;2022-08-19T06:43:48;10.13;;;2.30;;
68449;SDS011;55434;39.570;2.652;2022-08-19T06:46:15;17.07;;;3.07;;
68449;SDS011;55434;39.570;2.652;2022-08-19T06:48:43;17.50;;;3.13;;
68449;SDS011;55434;39.570;2.652;2022-08-19T06:51:09;16.10;;;3.00;;
68449;SDS011;55434;39.570;2.652;2022-08-19T06:53:35;23.30;;;3.55;;
68449;SDS011;55434;39.570;2.652;2022-08-19T06:56:01;47.03;;;6.03;;
68449;SDS011;55434;39.570;2.652;2022-08-19T06:58:30;30.98;;;4.13;;
68449;SDS011;55434;39.570;2.652;2022-08-19T07:01:03;17.23;;;3.10;;
68449;SDS011;55434;39.570;2.652;2022-08-19T07:03:30;12.98;;;2.53;;
68449;SDS011;55434;39.570;2.652;2022-08-19T07:05:57;12.52;;;3.20;;
68449;SDS011;55434;39.570;2.652;2022-08-19T07:08:27;13.07;;;2.53;;
68449;SDS011;55434;39.570;2.652;2022-08-19T07:10:53;16.47;;;3.37;;
68449;SDS011;55434;39.570;2.652;2022-08-19T07:13:19;22.58;;;3.70;;
68449;SDS011;55434;39.570;2.652;2022-08-19T07:15:46;14.18;;;3.60;;
68449;SDS011;55434;39.570;2.652;2022-08-19T07:18:14;11.85;;;4.00;;
68449;SDS011;55434;39.570;2.652;2022-08-19T07:20:40;13.13;;;4.73;;
68449;SDS011;55434;39.570;2.652;2022-08-19T07:23:06;12.40;;;4.63;;
68449;SDS011;55434;39.570;2.652;2022-08-19T07:25:32;23.70;;;4.97;;
68449;SDS011;55434;39.570;2.652;2022-08-19T07:27:57;26.47;;;5.73;;
68449;SDS011;55434;39.570;2.652;2022-08-19T07:30:23;21.92;;;5.50;;
68449;SDS011;55434;39.570;2.652;2022-08-19T07:32:49;20.63;;;5.83;;
68449;SDS011;55434;39.570;2.652;2022-08-19T07:35:16;15.32;;;5.13;;
68449;SDS011;55434;39.570;2.652;2022-08-19T07:37:44;15.15;;;5.82;;
68449;SDS011;55434;39.570;2.652;2022-08-19T07:40:10;12.30;;;5.65;;
68449;SDS011;55434;39.570;2.652;2022-08-19T07:42:37;12.60;;;3.90;;
68449;SDS011;55434;39.570;2.652;2022-08-19T07:45:03;15.47;;;4.27;;
68449;SDS011;55434;39.570;2.652;2022-08-19T07:47:30;19.05;;;5.68;;
68449;SDS011;55434;39.570;2.652;2022-08-19T07:49:57;13.82;;;2.83;;
68449;SDS011;55434;39.570;2.652;2022-08-19T07:52:23;11.47;;;2.87;;
68449;SDS011;55434;39.570;2.652;2022-08-19T07:54:48;14.30;;;2.50;;
68449;SDS011;55434;39.570;2.652;2022-08-19T07:57:16;15.33;;;3.13;;
68449;SDS011;55434;39.570;2.652;2022-08-19T07:59:41;16.00;;;2.35;;
68449;SDS011;55434;39.570;2.652;2022-08-19T08:02:07;8.57;;;1.90;;
68449;SDS011;55434;39.570;2.652;2022-08-19T08:04:34;9.43;;;1.87;;
68449;SDS011;55434;39.570;2.652;2022-08-19T08:07:18;8.45;;;1.98;;
68449;SDS011;55434;39.570;2.652;2022-08-19T08:10:04;9.10;;;2.28;;
68449;SDS011;55434;39.570;2.652;2022-08-19T08:12:32;8.68;;;1.70;;
68449;SDS011;55434;39.570;2.652;2022-08-19T08:15:03;10.50;;;2.10;;
68449;SDS011;55434;39.570;2.652;2022-08-19T08:17:32;11.40;;;1.87;;
68449;SDS011;55434;39.570;2.652;2022-08-19T08:19:58;10.95;;;1.90;;
68449;SDS011;55434;39.570;2.652;2022-08-19T08:22:24;6.80;;;1.90;;
68449;SDS011;55434;39.570;2.652;2022-08-19T08:27:36;10.15;;;1.67;;
68449;SDS011;55434;39.570;2.652;2022-08-19T08:30:06;8.77;;;1.73;;
68449;SDS011;55434;39.570;2.652;2022-08-19T08:32:34;11.73;;;1.60;;
68449;SDS011;55434;39.570;2.652;2022-08-19T08:35:04;7.45;;;1.60;;
68449;SDS011;55434;39.570;2.652;2022-08-19T08:37:31;8.40;;;1.60;;
68449;SDS011;55434;39.570;2.652;2022-08-19T08:39:57;12.85;;;1.80;;
68449;SDS011;55434;39.570;2.652;2022-08-19T08:42:24;9.37;;;1.70;;
68449;SDS011;55434;39.570;2.652;2022-08-19T08:45:12;12.38;;;2.10;;
68449;SDS011;55434;39.570;2.652;2022-08-19T08:47:41;7.18;;;1.40;;
68449;SDS011;55434;39.570;2.652;2022-08-19T08:50:22;13.70;;;1.75;;
68449;SDS011;55434;39.570;2.652;2022-08-19T08:53:01;10.50;;;1.83;;
68449;SDS011;55434;39.570;2.652;2022-08-19T08:55:30;10.50;;;1.88;;
68449;SDS011;55434;39.570;2.652;2022-08-19T08:58:12;11.70;;;1.50;;
68449;SDS011;55434;39.570;2.652;2022-08-19T09:00:43;11.93;;;1.92;;
68449;SDS011;55434;39.570;2.652;2022-08-19T09:03:21;18.40;;;2.47;;
68449;SDS011;55434;39.570;2.652;2022-08-19T09:11:23;19.48;;;2.40;;
68449;SDS011;55434;39.570;2.652;2022-08-19T09:16:35;14.60;;;2.00;;
68449;SDS011;55434;39.570;2.652;2022-08-19T09:19:02;11.27;;;1.63;;
68449;SDS011;55434;39.570;2.652;2022-08-19T09:21:29;10.13;;;1.60;;
68449;SDS011;55434;39.570;2.652;2022-08-19T09:23:55;12.38;;;1.83;;
68449;SDS011;55434;39.570;2.652;2022-08-19T09:26:22;8.27;;;1.43;;
68449;SDS011;55434;39.570;2.652;2022-08-19T09:28:49;12.98;;;1.50;;
68449;SDS011;55434;39.570;2.652;2022-08-19T09:31:18;15.10;;;1.85;;
68449;SDS011;55434;39.570;2.652;2022-08-19T09:33:46;9.77;;;1.58;;
68449;SDS011;55434;39.570;2.652;2022-08-19T09:36:19;24.25;;;2.05;;
68449;SDS011;55434;39.570;2.652;2022-08-19T09:38:48;16.93;;;2.47;;
68449;SDS011;55434;39.570;2.652;2022-08-19T09:41:19;13.40;;;2.30;;
68449;SDS011;55434;39.570;2.652;2022-08-19T09:43:49;7.80;;;1.90;;
68449;SDS011;55434;39.570;2.652;2022-08-19T09:46:21;12.37;;;2.00;;
68449;SDS011;55434;39.570;2.652;2022-08-19T09:48:47;12.00;;;1.77;;
68449;SDS011;55434;39.570;2.652;2022-08-19T09:51:16;7.50;;;2.08;;
68449;SDS011;55434;39.570;2.652;2022-08-19T09:53:46;12.70;;;1.90;;
68449;SDS011;55434;39.570;2.652;2022-08-19T09:56:15;9.48;;;2.03;;
68449;SDS011;55434;39.570;2.652;2022-08-19T09:58:43;10.83;;;1.77;;
68449;SDS011;55434;39.570;2.652;2022-08-19T10:01:09;8.65;;;1.73;;
68449;SDS011;55434;39.570;2.652;2022-08-19T10:03:35;6.65;;;2.00;;
68449;SDS011;55434;39.570;2.652;2022-08-19T10:06:03;7.85;;;1.40;;
68449;SDS011;55434;39.570;2.652;2022-08-19T10:08:31;9.25;;;2.28;;
68449;SDS011;55434;39.570;2.652;2022-08-19T10:11:00;8.40;;;1.90;;
68449;SDS011;55434;39.570;2.652;2022-08-19T10:13:26;11.70;;;2.03;;
68449;SDS011;55434;39.570;2.652;2022-08-19T10:15:55;12.20;;;1.83;;
68449;SDS011;55434;39.570;2.652;2022-08-19T10:18:27;7.60;;;1.70;;
68449;SDS011;55434;39.570;2.652;2022-08-19T10:21:01;8.43;;;1.60;;
68449;SDS011;55434;39.570;2.652;2022-08-19T10:23:33;9.60;;;1.83;;
68449;SDS011;55434;39.570;2.652;2022-08-19T10:26:01;12.13;;;2.22;;
68449;SDS011;55434;39.570;2.652;2022-08-19T10:28:30;9.13;;;2.53;;
68449;SDS011;55434;39.570;2.652;2022-08-19T10:30:55;15.20;;;2.23;;
68449;SDS011;55434;39.570;2.652;2022-08-19T10:33:21;11.47;;;2.10;;
68449;SDS011;55434;39.570;2.652;2022-08-19T10:35:46;29.40;;;4.80;;
68449;SDS011;55434;39.570;2.652;2022-08-19T10:38:12;13.77;;;2.75;;
68449;SDS011;55434;39.570;2.652;2022-08-19T10:40:37;6.53;;;1.50;;
68449;SDS011;55434;39.570;2.652;2022-08-19T10:43:03;14.65;;;1.90;;
68449;SDS011;55434;39.570;2.652;2022-08-19T10:45:29;16.63;;;2.60;;
68449;SDS011;55434;39.570;2.652;2022-08-19T10:47:54;7.30;;;1.40;;
68449;SDS011;55434;39.570;2.652;2022-08-19T10:50:20;9.20;;;1.80;;
68449;SDS011;55434;39.570;2.652;2022-08-19T10:53:06;6.05;;;2.42;;
68449;SDS011;55434;39.570;2.652;2022-08-19T10:55:36;6.28;;;1.45;;
68449;SDS011;55434;39.570;2.652;2022-08-19T10:58:20;7.10;;;1.70;;
68449;SDS011;55434;39.570;2.652;2022-08-19T11:00:54;8.37;;;1.80;;
68449;SDS011;55434;39.570;2.652;2022-08-19T11:03:22;5.95;;;2.22;;
68449;SDS011;55434;39.570;2.652;2022-08-19T11:06:02;7.55;;;2.60;;
68449;SDS011;55434;39.570;2.652;2022-08-19T11:08:29;7.72;;;3.08;;
68449;SDS011;55434;39.570;2.652;2022-08-19T11:10:57;5.68;;;2.25;;
68449;SDS011;55434;39.570;2.652;2022-08-19T11:13:36;6.83;;;1.70;;
68449;SDS011;55434;39.570;2.652;2022-08-19T11:16:09;7.30;;;1.95;;
68449;SDS011;55434;39.570;2.652;2022-08-19T11:18:38;5.60;;;1.80;;
68449;SDS011;55434;39.570;2.652;2022-08-19T11:21:07;8.38;;;3.90;;
68449;SDS011;55434;39.570;2.652;2022-08-19T11:23:36;9.45;;;4.05;;
68449;SDS011;55434;39.570;2.652;2022-08-19T11:26:02;9.10;;;3.37;;
68449;SDS011;55434;39.570;2.652;2022-08-19T11:28:27;7.35;;;3.28;;
68449;SDS011;55434;39.570;2.652;2022-08-19T11:30:53;9.17;;;3.50;;
68449;SDS011;55434;39.570;2.652;2022-08-19T11:33:19;7.80;;;3.92;;
68449;SDS011;55434;39.570;2.652;2022-08-19T11:35:44;7.60;;;4.43;;
68449;SDS011;55434;39.570;2.652;2022-08-19T11:38:10;5.97;;;2.90;;
68449;SDS011;55434;39.570;2.652;2022-08-19T11:40:36;10.93;;;3.85;;
68449;SDS011;55434;39.570;2.652;2022-08-19T11:43:04;12.68;;;4.53;;
68449;SDS011;55434;39.570;2.652;2022-08-19T11:45:32;13.48;;;4.43;;
68449;SDS011;55434;39.570;2.652;2022-08-19T11:47:57;6.90;;;4.55;;
68449;SDS011;55434;39.570;2.652;2022-08-19T11:50:23;7.43;;;4.43;;
68449;SDS011;55434;39.570;2.652;2022-08-19T11:52:49;11.10;;;5.15;;
68449;SDS011;55434;39.570;2.652;2022-08-19T11:55:20;7.85;;;5.05;;
68449;SDS011;55434;39.570;2.652;2022-08-19T11:57:45;7.80;;;4.63;;
68449;SDS011;55434;39.570;2.652;2022-08-19T12:00:12;6.03;;;4.05;;
68449;SDS011;55434;39.570;2.652;2022-08-19T12:02:38;8.32;;;4.45;;
68449;SDS011;55434;39.570;2.652;2022-08-19T12:05:05;9.27;;;4.82;;
68449;SDS011;55434;39.570;2.652;2022-08-19T12:07:33;7.25;;;4.70;;
68449;SDS011;55434;39.570;2.652;2022-08-19T12:09:59;8.63;;;4.47;;
68449;SDS011;55434;39.570;2.652;2022-08-19T12:12:26;8.23;;;4.25;;
68449;SDS011;55434;39.570;2.652;2022-08-19T12:14:52;8.32;;;4.60;;
68449;SDS011;55434;39.570;2.652;2022-08-19T12:17:27;7.43;;;4.05;;
68449;SDS011;55434;39.570;2.652;2022-08-19T12:19:53;7.72;;;4.03;;
68449;SDS011;55434;39.570;2.652;2022-08-19T12:22:19;7.33;;;4.37;;
68449;SDS011;55434;39.570;2.652;2022-08-19T12:24:45;7.32;;;4.20;;
68449;SDS011;55434;39.570;2.652;2022-08-19T12:27:11;7.03;;;5.22;;
68449;SDS011;55434;39.570;2.652;2022-08-19T12:29:36;7.13;;;4.13;;
68449;SDS011;55434;39.570;2.652;2022-08-19T12:32:02;6.93;;;3.90;;
68449;SDS011;55434;39.570;2.652;2022-08-19T12:34:28;6.90;;;4.22;;
68449;SDS011;55434;39.570;2.652;2022-08-19T12:36:58;6.40;;;4.43;;
68449;SDS011;55434;39.570;2.652;2022-08-19T12:39:26;8.60;;;5.60;;
68449;SDS011;55434;39.570;2.652;2022-08-19T12:41:51;9.13;;;3.85;;
68449;SDS011;55434;39.570;2.652;2022-08-19T12:44:17;10.55;;;4.85;;
68449;SDS011;55434;39.570;2.652;2022-08-19T12:46:43;11.02;;;4.32;;
68449;SDS011;55434;39.570;2.652;2022-08-19T12:49:09;17.02;;;5.32;;
68449;SDS011;55434;39.570;2.652;2022-08-19T12:51:35;12.03;;;4.40;;
68449;SDS011;55434;39.570;2.652;2022-08-19T12:54:01;8.77;;;5.00;;
68449;SDS011;55434;39.570;2.652;2022-08-19T12:56:27;21.25;;;5.88;;
68449;SDS011;55434;39.570;2.652;2022-08-19T12:58:53;19.13;;;6.40;;
68449;SDS011;55434;39.570;2.652;2022-08-19T13:01:19;18.52;;;4.43;;
68449;SDS011;55434;39.570;2.652;2022-08-19T13:03:45;15.90;;;4.35;;
68449;SDS011;55434;39.570;2.652;2022-08-19T13:06:12;7.47;;;3.70;;
68449;SDS011;55434;39.570;2.652;2022-08-19T13:08:38;7.28;;;3.80;;
68449;SDS011;55434;39.570;2.652;2022-08-19T13:11:13;14.07;;;3.85;;
68449;SDS011;55434;39.570;2.652;2022-08-19T13:13:42;6.90;;;3.70;;
68449;SDS011;55434;39.570;2.652;2022-08-19T13:16:10;7.95;;;3.42;;
68449;SDS011;55434;39.570;2.652;2022-08-19T13:18:37;6.53;;;2.70;;
68449;SDS011;55434;39.570;2.652;2022-08-19T13:21:04;6.80;;;3.00;;
68449;SDS011;55434;39.570;2.652;2022-08-19T13:23:32;6.45;;;3.30;;
68449;SDS011;55434;39.570;2.652;2022-08-19T13:25:59;10.60;;;4.07;;
68449;SDS011;55434;39.570;2.652;2022-08-19T13:28:27;7.93;;;2.63;;
68449;SDS011;55434;39.570;2.652;2022-08-19T13:31:14;9.10;;;2.60;;
68449;SDS011;55434;39.570;2.652;2022-08-19T13:34:03;7.03;;;2.72;;
68449;SDS011;55434;39.570;2.652;2022-08-19T13:36:31;6.60;;;2.53;;
68449;SDS011;55434;39.570;2.652;2022-08-19T13:39:00;5.75;;;1.73;;
68449;SDS011;55434;39.570;2.652;2022-08-19T13:41:26;5.50;;;1.90;;
68449;SDS011;55434;39.570;2.652;2022-08-19T13:44:23;7.32;;;1.80;;
68449;SDS011;55434;39.570;2.652;2022-08-19T13:46:49;12.77;;;1.87;;
68449;SDS011;55434;39.570;2.652;2022-08-19T13:49:17;5.85;;;1.60;;
68449;SDS011;55434;39.570;2.652;2022-08-19T13:51:43;7.07;;;1.55;;
68449;SDS011;55434;39.570;2.652;2022-08-19T13:54:09;6.17;;;1.80;;
68449;SDS011;55434;39.570;2.652;2022-08-19T13:56:39;7.03;;;1.80;;
68449;SDS011;55434;39.570;2.652;2022-08-19T13:59:10;8.60;;;2.10;;
68449;SDS011;55434;39.570;2.652;2022-08-19T14:01:36;11.43;;;3.00;;
68449;SDS011;55434;39.570;2.652;2022-08-19T14:04:04;9.88;;;3.53;;
68449;SDS011;55434;39.570;2.652;2022-08-19T14:06:36;5.75;;;1.67;;
68449;SDS011;55434;39.570;2.652;2022-08-19T14:09:05;7.97;;;1.95;;
68449;SDS011;55434;39.570;2.652;2022-08-19T14:11:33;6.70;;;2.20;;
68449;SDS011;55434;39.570;2.652;2022-08-19T14:13:59;6.03;;;2.07;;
68449;SDS011;55434;39.570;2.652;2022-08-19T14:16:25;6.60;;;2.37;;
68449;SDS011;55434;39.570;2.652;2022-08-19T14:18:52;4.85;;;1.92;;
68449;SDS011;55434;39.570;2.652;2022-08-19T14:21:21;6.55;;;2.58;;
68449;SDS011;55434;39.570;2.652;2022-08-19T14:23:48;9.10;;;2.70;;
68449;SDS011;55434;39.570;2.652;2022-08-19T14:26:15;5.43;;;2.40;;
68449;SDS011;55434;39.570;2.652;2022-08-19T14:28:43;6.00;;;2.40;;
68449;SDS011;55434;39.570;2.652;2022-08-19T14:31:10;9.65;;;2.22;;
68449;SDS011;55434;39.570;2.652;2022-08-19T14:33:37;5.68;;;2.78;;
68449;SDS011;55434;39.570;2.652;2022-08-19T14:36:03;7.07;;;2.03;;
68449;SDS011;55434;39.570;2.652;2022-08-19T14:38:29;5.47;;;2.30;;
68449;SDS011;55434;39.570;2.652;2022-08-19T14:41:05;7.63;;;2.50;;
68449;SDS011;55434;39.570;2.652;2022-08-19T14:43:32;6.10;;;2.67;;
68449;SDS011;55434;39.570;2.652;2022-08-19T14:45:58;7.15;;;2.83;;
68449;SDS011;55434;39.570;2.652;2022-08-19T14:48:24;6.47;;;2.60;;
68449;SDS011;55434;39.570;2.652;2022-08-19T14:50:49;6.87;;;2.87;;
68449;SDS011;55434;39.570;2.652;2022-08-19T14:53:15;7.95;;;2.97;;
68449;SDS011;55434;39.570;2.652;2022-08-19T14:55:43;5.85;;;3.70;;
68449;SDS011;55434;39.570;2.652;2022-08-19T14:58:10;8.87;;;3.53;;
68449;SDS011;55434;39.570;2.652;2022-08-19T15:00:37;7.47;;;3.05;;
68449;SDS011;55434;39.570;2.652;2022-08-19T15:03:02;6.95;;;3.83;;
68449;SDS011;55434;39.570;2.652;2022-08-19T15:05:28;7.80;;;4.40;;
68449;SDS011;55434;39.570;2.652;2022-08-19T15:07:54;7.32;;;3.45;;